Time;durP1;ratioP1;P1;durP2;ratioP2;P2;SDS_P1;SDS_P2;PMS_P1;PMS_P2;Temp;Humidity;BMP_temperature;BMP_pressure;BME280_temperature;BME280_humidity;BME280_pressure;Samples;Min_cycle;Max_cycle;Signal;HPM_P1;HPM_P2
2023/02/23 00:01:14;;;;;;;9.55;5.75;;;7.60;99.90;;;;;;5092331;28;20695;-69
2023/02/23 00:03:41;;;;;;;11.88;7.03;;;7.70;99.90;;;;;;5092526;28;20200;-69
2023/02/23 00:06:08;;;;;;;9.20;6.55;;;7.70;99.90;;;;;;5092433;28;20206;-69
2023/02/23 00:08:35;;;;;;;8.05;6.38;;;7.70;99.90;;;;;;5092447;28;20689;-70
2023/02/23 00:11:05;;;;;;;9.27;6.60;;;7.70;99.90;;;;;;5092272;28;20570;-69
2023/02/23 00:13:36;;;;;;;9.63;5.57;;;7.80;99.90;;;;;;5092302;28;20307;-69
2023/02/23 00:16:05;;;;;;;9.60;6.07;;;7.80;99.90;;;;;;5072943;28;20203;-69
2023/02/23 00:18:43;;;;;;;8.82;6.30;;;7.80;99.90;;;;;;5072426;28;20652;-71
2023/02/23 00:21:13;;;;;;;9.60;6.75;;;7.90;99.90;;;;;;5071722;28;20204;-71
2023/02/23 00:23:40;;;;;;;10.43;6.53;;;7.90;99.90;;;;;;5072618;28;20193;-71
2023/02/23 00:26:09;;;;;;;11.13;7.18;;;7.90;99.90;;;;;;5071238;28;20275;-71
2023/02/23 00:28:36;;;;;;;9.15;7.03;;;7.90;99.90;;;;;;5086747;28;20203;-71
2023/02/23 00:31:03;;;;;;;10.02;6.93;;;7.90;99.90;;;;;;5092134;28;20662;-71
2023/02/23 00:33:31;;;;;;;10.95;7.18;;;7.90;99.90;;;;;;5091620;28;20265;-71
2023/02/23 00:36:04;;;;;;;10.52;6.95;;;7.90;99.90;;;;;;5089922;28;20231;-71
2023/02/23 00:38:34;;;;;;;9.30;7.00;;;7.90;99.90;;;;;;5092309;28;20224;-71
2023/02/23 00:41:05;;;;;;;8.05;6.35;;;7.90;99.90;;;;;;5094744;28;20224;-71
2023/02/23 00:43:35;;;;;;;7.07;6.05;;;7.80;99.90;;;;;;5097760;28;20651;-71
2023/02/23 00:46:05;;;;;;;10.95;6.15;;;7.80;99.90;;;;;;5096115;28;20196;-71
2023/02/23 00:48:31;;;;;;;10.10;6.47;;;7.80;99.90;;;;;;5095191;28;20224;-71
2023/02/23 00:50:59;;;;;;;9.70;6.95;;;7.80;99.90;;;;;;5094138;28;20578;-71
2023/02/23 00:53:26;;;;;;;11.10;7.75;;;7.80;99.90;;;;;;5093873;28;20497;-70
2023/02/23 00:55:54;;;;;;;9.20;6.40;;;7.80;99.90;;;;;;5093948;28;20199;-71
2023/02/23 00:58:20;;;;;;;10.07;6.10;;;7.80;99.90;;;;;;5094581;28;20247;-71
2023/02/23 01:00:48;;;;;;;9.15;6.55;;;7.70;99.90;;;;;;5093824;28;20196;-71
2023/02/23 01:03:15;;;;;;;8.43;6.35;;;7.60;99.90;;;;;;5092777;28;20230;-71
2023/02/23 01:05:43;;;;;;;8.25;5.95;;;7.60;99.90;;;;;;5093295;28;20222;-71
2023/02/23 01:08:10;;;;;;;9.07;6.80;;;7.60;99.90;;;;;;5092608;28;20632;-70
2023/02/23 01:10:41;;;;;;;9.77;7.60;;;7.60;99.90;;;;;;5093038;28;20245;-71
2023/02/23 01:13:08;;;;;;;7.70;5.90;;;7.60;99.90;;;;;;5091889;28;20252;-70
2023/02/23 01:15:40;;;;;;;10.73;7.93;;;7.60;99.90;;;;;;5092200;28;20241;-70
2023/02/23 01:18:08;;;;;;;9.27;6.93;;;7.50;99.90;;;;;;5092258;28;20597;-70
2023/02/23 01:20:36;;;;;;;8.23;7.40;;;7.50;99.90;;;;;;5092172;28;20196;-70
2023/02/23 01:23:03;;;;;;;11.48;7.75;;;7.60;99.90;;;;;;5206504;22;20226;-70
2023/02/23 01:25:30;;;;;;;13.65;8.23;;;7.50;99.90;;;;;;5067491;28;20197;-71
2023/02/23 01:27:57;;;;;;;7.95;6.45;;;7.60;99.90;;;;;;5066508;28;20220;-70
2023/02/23 01:30:24;;;;;;;16.80;7.60;;;7.50;99.90;;;;;;5069475;28;20407;-71
2023/02/23 01:32:51;;;;;;;8.80;6.95;;;7.50;99.90;;;;;;5067256;28;20204;-70
2023/02/23 01:35:19;;;;;;;10.25;7.60;;;7.50;99.90;;;;;;5072765;28;20243;-70
2023/02/23 01:37:46;;;;;;;11.85;8.07;;;7.50;99.90;;;;;;5093323;28;20216;-71
2023/02/23 01:40:15;;;;;;;11.63;8.15;;;7.50;99.90;;;;;;5096152;28;20230;-71
2023/02/23 01:42:44;;;;;;;10.60;8.05;;;7.50;99.90;;;;;;5081425;28;20232;-70
2023/02/23 01:45:27;;;;;;;11.25;7.72;;;7.60;99.90;;;;;;5075979;28;20204;-71
2023/02/23 01:47:57;;;;;;;9.07;6.85;;;7.50;99.90;;;;;;5076013;28;20220;-71
2023/02/23 01:50:27;;;;;;;11.13;7.32;;;7.60;99.90;;;;;;5089534;28;20593;-71
2023/02/23 01:52:55;;;;;;;9.70;7.18;;;7.60;99.90;;;;;;5096423;28;20202;-70
2023/02/23 01:55:27;;;;;;;10.93;7.28;;;7.60;99.90;;;;;;5076177;28;20274;-71
2023/02/23 01:57:59;;;;;;;10.48;8.40;;;7.60;99.90;;;;;;5076192;28;20224;-71
2023/02/23 02:00:27;;;;;;;15.18;9.38;;;7.70;99.90;;;;;;5075887;28;20227;-71
2023/02/23 02:02:54;;;;;;;10.38;6.72;;;7.70;99.90;;;;;;5083913;28;20549;-70
2023/02/23 02:05:21;;;;;;;12.95;7.75;;;7.70;99.90;;;;;;5092892;28;20200;-71
2023/02/23 02:07:57;;;;;;;12.85;8.43;;;7.70;99.90;;;;;;5076177;28;20212;-71
2023/02/23 02:10:46;;;;;;;11.15;8.00;;;7.70;99.90;;;;;;5079873;28;20199;-71
2023/02/23 02:13:19;;;;;;;19.08;7.80;;;7.70;99.90;;;;;;5095338;28;20222;-71
2023/02/23 02:16:17;;;;;;;14.02;7.97;;;7.70;99.90;;;;;;5096612;28;20243;-71
2023/02/23 02:19:26;;;;;;;9.55;7.45;;;7.70;99.90;;;;;;5096214;28;20199;-71
2023/02/23 02:22:15;;;;;;;14.15;8.80;;;7.70;99.90;;;;;;5079353;28;20661;-71
2023/02/23 02:25:26;;;;;;;10.93;7.75;;;7.70;99.90;;;;;;5096919;28;20192;-71
2023/02/23 02:28:25;;;;;;;11.38;7.70;;;7.60;99.90;;;;;;5076045;28;20216;-71
2023/02/23 02:31:19;;;;;;;10.05;7.15;;;7.60;99.90;;;;;;5075781;28;20200;-71
2023/02/23 02:34:05;;;;;;;10.93;7.38;;;7.60;99.90;;;;;;5077894;28;20200;-71
2023/02/23 02:37:03;;;;;;;11.75;8.45;;;7.60;99.90;;;;;;5083156;28;20215;-71
2023/02/23 02:39:43;;;;;;;11.70;8.50;;;7.60;99.90;;;;;;5099168;28;20208;-70
2023/02/23 02:42:20;;;;;;;10.93;7.97;;;7.60;99.90;;;;;;5087907;28;20240;-70
2023/02/23 02:44:54;;;;;;;11.02;8.52;;;7.60;99.90;;;;;;5078025;28;20192;-71
2023/02/23 02:47:29;;;;;;;11.55;8.82;;;7.60;99.90;;;;;;5077657;28;20269;-70
2023/02/23 02:50:05;;;;;;;11.73;7.80;;;7.60;99.90;;;;;;5075150;28;20196;-71
2023/02/23 02:52:39;;;;;;;9.35;7.57;;;7.60;99.90;;;;;;5078921;28;20204;-70
2023/02/23 02:55:12;;;;;;;11.40;8.35;;;7.60;99.90;;;;;;5094528;28;20211;-70
2023/02/23 02:57:39;;;;;;;12.10;8.48;;;7.60;99.90;;;;;;5095414;28;20221;-70
2023/02/23 04:18:41;;;;;;;13.30;8.15;;;7.70;99.90;;;;;;5079908;28;20267;-70
2023/02/23 04:21:08;;;;;;;14.65;7.50;;;7.60;99.90;;;;;;5085933;28;20200;-71
2023/02/23 04:23:39;;;;;;;11.18;8.55;;;7.60;99.90;;;;;;5082851;28;20203;-70
2023/02/23 04:26:06;;;;;;;12.68;7.97;;;7.60;99.90;;;;;;5082349;28;20200;-71
2023/02/23 04:28:32;;;;;;;11.13;7.45;;;7.60;99.90;;;;;;5077556;28;20219;-70
2023/02/23 04:30:59;;;;;;;9.10;6.80;;;7.60;99.90;;;;;;5078552;28;20196;-71
2023/02/23 04:33:27;;;;;;;7.50;6.40;;;7.60;99.90;;;;;;5080042;28;20207;-70
2023/02/23 04:35:54;;;;;;;10.88;6.60;;;7.60;99.90;;;;;;5082131;28;20219;-71
2023/02/23 04:38:21;;;;;;;12.82;6.75;;;7.60;99.90;;;;;;5082886;28;20231;-71
2023/02/23 04:40:48;;;;;;;8.68;6.90;;;7.60;99.90;;;;;;5084816;28;20196;-70
2023/02/23 04:43:15;;;;;;;9.52;6.18;;;7.70;99.90;;;;;;5091834;28;20653;-71
2023/02/23 04:45:42;;;;;;;9.90;6.70;;;7.70;99.90;;;;;;5079212;28;20192;-71
2023/02/23 04:48:09;;;;;;;13.88;6.78;;;7.70;99.90;;;;;;5080915;28;20233;-71
2023/02/23 04:50:37;;;;;;;8.02;5.60;;;7.70;99.90;;;;;;5079782;28;20208;-71
2023/02/23 04:53:04;;;;;;;6.60;5.35;;;7.70;99.90;;;;;;5079484;28;20207;-71
2023/02/23 04:55:31;;;;;;;6.78;5.47;;;7.70;99.90;;;;;;5075487;28;20251;-71
2023/02/23 04:58:00;;;;;;;9.32;5.00;;;7.80;99.90;;;;;;5082236;28;20219;-71
2023/02/23 05:00:28;;;;;;;7.75;5.15;;;7.70;99.90;;;;;;5080852;28;20202;-71
2023/02/23 05:02:55;;;;;;;6.20;4.20;;;7.80;99.90;;;;;;5078660;28;20197;-71
2023/02/23 05:05:21;;;;;;;7.65;5.30;;;7.80;99.90;;;;;;5084615;28;20228;-71
2023/02/23 05:07:50;;;;;;;8.55;5.50;;;7.80;99.90;;;;;;5085993;28;20224;-71
2023/02/23 05:10:17;;;;;;;4.90;4.40;;;7.80;99.90;;;;;;5084356;28;20228;-71
2023/02/23 05:12:44;;;;;;;5.47;4.40;;;7.80;99.90;;;;;;5090235;28;20200;-71
2023/02/23 05:15:11;;;;;;;6.95;4.38;;;7.80;99.90;;;;;;5086251;28;20220;-71
2023/02/23 05:17:40;;;;;;;7.05;5.05;;;7.90;99.90;;;;;;5087475;28;20655;-71
2023/02/23 05:20:08;;;;;;;5.45;3.88;;;7.90;99.90;;;;;;5094535;28;20198;-70
2023/02/23 05:22:35;;;;;;;7.63;5.77;;;7.90;99.90;;;;;;5091742;28;20475;-70
2023/02/23 05:25:04;;;;;;;5.97;4.55;;;7.90;99.90;;;;;;5093568;28;20461;-69
2023/02/23 05:27:33;;;;;;;9.18;5.43;;;7.90;99.90;;;;;;5092801;28;20756;-70
2023/02/23 05:30:00;;;;;;;6.25;4.53;;;7.90;99.90;;;;;;5093958;28;20257;-70
2023/02/23 05:32:27;;;;;;;7.07;5.05;;;7.90;99.90;;;;;;5090330;28;20204;-70
2023/02/23 05:34:54;;;;;;;6.70;4.40;;;8.00;99.90;;;;;;5091674;28;20737;-70
2023/02/23 05:37:20;;;;;;;6.65;4.32;;;8.00;99.90;;;;;;5091673;28;20223;-69
2023/02/23 05:39:47;;;;;;;7.28;4.65;;;8.00;99.90;;;;;;5092577;28;20204;-69
2023/02/23 05:42:15;;;;;;;7.03;4.95;;;8.00;99.90;;;;;;5091536;28;20196;-69
2023/02/23 05:44:42;;;;;;;6.47;4.80;;;8.00;99.90;;;;;;5087401;28;20200;-70
2023/02/23 05:47:09;;;;;;;7.15;4.60;;;8.00;99.90;;;;;;5088068;28;20227;-70
2023/02/23 05:49:36;;;;;;;10.32;5.00;;;8.00;99.90;;;;;;5073762;28;20293;-71
2023/02/23 05:52:03;;;;;;;5.05;4.20;;;8.10;99.90;;;;;;5079651;28;20201;-70
2023/02/23 05:54:30;;;;;;;5.10;4.50;;;8.10;99.90;;;;;;5076648;28;20583;-69
2023/02/23 05:56:57;;;;;;;6.28;4.90;;;8.10;99.90;;;;;;5075796;28;20216;-70
2023/02/23 05:59:25;;;;;;;5.50;4.75;;;8.10;99.90;;;;;;5074440;28;20211;-70
2023/02/23 06:01:52;;;;;;;8.15;5.00;;;8.10;99.90;;;;;;5072244;28;20204;-69
2023/02/23 06:04:22;;;;;;;8.80;4.18;;;8.10;99.90;;;;;;5072002;28;20211;-70
2023/02/23 06:06:48;;;;;;;7.15;4.40;;;8.20;99.90;;;;;;5072509;28;20247;-70
2023/02/23 06:09:15;;;;;;;6.00;4.32;;;8.20;99.90;;;;;;5081817;28;20618;-70
2023/02/23 06:11:42;;;;;;;5.45;4.28;;;8.20;99.90;;;;;;5091949;28;20196;-70
2023/02/23 06:14:09;;;;;;;5.97;5.20;;;8.20;99.90;;;;;;5091632;28;20627;-69
2023/02/23 06:16:38;;;;;;;7.28;4.90;;;8.20;99.90;;;;;;5091260;28;20219;-70
2023/02/23 06:19:04;;;;;;;7.10;4.57;;;8.20;99.90;;;;;;5076692;28;20197;-70
2023/02/23 06:21:31;;;;;;;6.05;5.13;;;8.10;99.90;;;;;;5073726;28;20215;-69
2023/02/23 06:23:59;;;;;;;8.15;5.40;;;8.10;99.90;;;;;;5085142;28;20554;-70
2023/02/23 06:26:26;;;;;;;6.32;4.97;;;8.20;99.90;;;;;;5077389;28;20207;-70
2023/02/23 06:28:53;;;;;;;8.85;4.70;;;8.20;99.90;;;;;;5085785;28;20199;-69
2023/02/23 06:31:20;;;;;;;6.22;5.22;;;8.20;99.90;;;;;;5094708;28;20200;-70
2023/02/23 06:33:48;;;;;;;8.10;5.32;;;8.20;99.90;;;;;;5082077;28;20193;-70
2023/02/23 06:36:15;;;;;;;7.30;4.68;;;8.10;99.90;;;;;;5084846;28;20250;-70
2023/02/23 06:38:41;;;;;;;5.90;4.40;;;8.10;99.90;;;;;;5097144;28;20195;-70
2023/02/23 06:41:09;;;;;;;6.63;5.32;;;8.20;99.90;;;;;;5097015;28;20206;-70
2023/02/23 06:43:36;;;;;;;6.75;4.97;;;8.20;99.90;;;;;;5076409;28;20204;-70
2023/02/23 06:46:05;;;;;;;7.32;4.80;;;8.20;99.90;;;;;;5082545;28;20542;-70
2023/02/23 06:48:31;;;;;;;10.23;5.38;;;8.20;99.90;;;;;;5086673;28;20261;-70
2023/02/23 06:51:00;;;;;;;6.20;4.68;;;8.20;99.90;;;;;;5095367;28;20199;-70
2023/02/23 06:53:27;;;;;;;5.97;4.65;;;8.20;99.90;;;;;;5092390;28;20207;-69
2023/02/23 06:55:54;;;;;;;6.18;4.75;;;8.20;99.90;;;;;;5074810;28;20219;-70
2023/02/23 06:58:22;;;;;;;5.95;5.35;;;8.20;99.90;;;;;;5074434;28;20235;-69
2023/02/23 07:00:48;;;;;;;6.30;4.53;;;8.20;99.90;;;;;;5081790;28;20560;-69
2023/02/23 07:03:15;;;;;;;8.35;5.05;;;8.20;99.90;;;;;;5072999;28;20200;-69
2023/02/23 07:05:42;;;;;;;5.28;4.55;;;8.20;99.90;;;;;;5081263;28;20216;-70
2023/02/23 07:08:10;;;;;;;6.40;5.30;;;8.20;99.90;;;;;;5073340;28;20228;-70
2023/02/23 07:10:37;;;;;;;5.50;4.82;;;8.20;99.90;;;;;;5081346;28;20200;-70
2023/02/23 07:13:03;;;;;;;5.70;4.63;;;8.20;99.90;;;;;;5073622;28;20193;-70
2023/02/23 07:15:30;;;;;;;8.85;4.90;;;8.20;99.90;;;;;;5085303;28;20219;-70
2023/02/23 07:17:57;;;;;;;7.05;5.10;;;8.20;99.90;;;;;;5095489;28;20699;-69
2023/02/23 07:20:23;;;;;;;6.57;5.70;;;8.10;99.90;;;;;;5086253;28;20204;-70
2023/02/23 07:22:50;;;;;;;7.38;5.32;;;8.20;99.90;;;;;;5080285;28;20203;-70
2023/02/23 07:25:18;;;;;;;6.25;5.30;;;8.20;99.90;;;;;;5095669;28;20204;-70
2023/02/23 07:27:45;;;;;;;6.55;5.20;;;8.20;99.90;;;;;;5095051;28;20215;-70
2023/02/23 07:30:13;;;;;;;7.50;5.65;;;8.20;99.90;;;;;;5090213;28;20219;-70
2023/02/23 07:32:40;;;;;;;6.93;5.28;;;8.20;99.90;;;;;;5076032;28;20196;-70
2023/02/23 07:35:08;;;;;;;7.78;5.40;;;8.30;99.90;;;;;;5075757;28;20217;-70
2023/02/23 07:37:34;;;;;;;7.80;5.90;;;8.30;99.90;;;;;;5075212;28;20224;-70
2023/02/23 07:40:01;;;;;;;6.22;4.60;;;8.30;99.90;;;;;;5075002;28;20205;-70
2023/02/23 07:42:29;;;;;;;10.25;6.05;;;8.40;99.90;;;;;;5074170;28;20204;-70
2023/02/23 07:44:56;;;;;;;8.05;5.10;;;8.40;99.90;;;;;;5075157;28;20201;-69
2023/02/23 07:47:29;;;;;;;11.13;4.88;;;8.40;99.90;;;;;;5074828;28;20221;-69
2023/02/23 07:49:57;;;;;;;7.25;5.80;;;8.50;99.90;;;;;;5078917;28;20442;-71
2023/02/23 07:52:23;;;;;;;6.38;5.32;;;8.50;99.90;;;;;;5088015;28;20724;-71
2023/02/23 07:54:50;;;;;;;7.15;4.60;;;8.50;99.90;;;;;;5091730;28;20204;-70
2023/02/23 07:57:17;;;;;;;8.27;5.20;;;8.60;99.90;;;;;;5091679;28;20219;-71
2023/02/23 07:59:45;;;;;;;8.68;4.75;;;8.70;99.90;;;;;;5071359;28;20678;-71
2023/02/23 08:02:13;;;;;;;7.00;4.90;;;8.70;99.90;;;;;;5071133;28;20196;-72
2023/02/23 08:04:42;;;;;;;5.25;4.55;;;8.90;99.90;;;;;;5071122;28;20201;-71
2023/02/23 08:07:09;;;;;;;10.00;4.05;;;8.90;99.90;;;;;;5078567;28;20335;-71
2023/02/23 08:09:35;;;;;;;10.32;5.00;;;9.10;99.90;;;;;;5091070;28;20208;-70
2023/02/23 08:12:02;;;;;;;6.20;4.32;;;9.20;99.90;;;;;;5091373;28;20210;-72
2023/02/23 08:14:29;;;;;;;5.65;4.28;;;9.30;99.90;;;;;;5090752;28;20705;-71
2023/02/23 08:16:57;;;;;;;5.55;5.00;;;9.50;99.90;;;;;;5089844;28;20573;-71
2023/02/23 08:19:24;;;;;;;5.35;4.65;;;9.60;99.90;;;;;;5074242;28;20714;-72
2023/02/23 08:21:51;;;;;;;6.30;4.63;;;9.70;99.90;;;;;;5090968;28;20195;-72
2023/02/23 08:24:18;;;;;;;7.32;4.43;;;9.80;99.90;;;;;;5090134;28;20683;-70
2023/02/23 08:26:44;;;;;;;8.70;4.70;;;9.80;99.90;;;;;;5075381;28;20763;-72
2023/02/23 08:29:11;;;;;;;5.30;4.20;;;9.80;99.90;;;;;;5092890;28;20231;-72
2023/02/23 08:31:38;;;;;;;7.13;4.28;;;9.80;99.90;;;;;;5071821;28;20224;-72
2023/02/23 08:34:07;;;;;;;6.47;4.15;;;9.90;99.90;;;;;;5070837;28;20224;-72
2023/02/23 08:36:34;;;;;;;7.88;4.32;;;9.90;99.90;;;;;;5080624;28;20231;-73
2023/02/23 08:39:01;;;;;;;6.05;3.83;;;9.90;99.90;;;;;;5085649;28;20255;-73
2023/02/23 08:41:28;;;;;;;4.43;4.00;;;9.90;99.90;;;;;;5070518;28;20226;-72
2023/02/23 08:43:55;;;;;;;5.57;3.78;;;10.00;99.90;;;;;;5075001;28;20206;-71
2023/02/23 08:46:21;;;;;;;7.57;5.88;;;10.00;99.90;;;;;;5090508;28;20246;-71
2023/02/23 08:48:48;;;;;;;5.03;4.15;;;10.00;99.90;;;;;;5082382;28;20230;-71
2023/02/23 08:51:17;;;;;;;5.18;3.95;;;10.00;99.90;;;;;;5091315;28;20207;-71
2023/02/23 08:53:43;;;;;;;8.32;4.30;;;10.10;99.90;;;;;;5069748;28;20200;-72
2023/02/23 08:56:11;;;;;;;6.95;4.55;;;10.20;99.90;;;;;;5070872;28;20217;-72
2023/02/23 08:58:38;;;;;;;4.93;3.45;;;10.30;99.90;;;;;;5073721;28;20205;-71
2023/02/23 09:01:06;;;;;;;4.57;3.47;;;10.50;99.90;;;;;;5089996;28;20200;-70
2023/02/23 09:03:35;;;;;;;3.97;3.63;;;10.60;99.90;;;;;;5071862;28;20196;-71
2023/02/23 09:06:07;;;;;;;5.05;3.40;;;10.80;99.90;;;;;;5070547;28;20196;-71
2023/02/23 09:08:35;;;;;;;5.00;3.58;;;10.90;99.90;;;;;;5069748;28;20224;-71
2023/02/23 09:11:02;;;;;;;5.40;3.35;;;10.90;99.90;;;;;;5070886;28;20205;-71
2023/02/23 09:13:29;;;;;;;3.70;3.05;;;11.00;99.90;;;;;;5070398;28;20200;-71
2023/02/23 09:15:55;;;;;;;4.10;2.40;;;11.00;99.90;;;;;;5077253;28;20584;-72
2023/02/23 09:18:26;;;;;;;3.83;3.08;;;10.90;99.90;;;;;;5075936;28;20236;-69
2023/02/23 09:20:53;;;;;;;4.32;3.45;;;10.90;99.90;;;;;;5077195;28;20240;-71
2023/02/23 09:23:20;;;;;;;4.47;3.10;;;10.90;99.90;;;;;;5087994;28;20206;-71
2023/02/23 09:25:48;;;;;;;7.90;3.63;;;11.00;99.90;;;;;;5088261;28;20225;-71
2023/02/23 09:28:16;;;;;;;3.20;2.65;;;11.00;99.90;;;;;;5089154;28;20224;-70
2023/02/23 09:30:44;;;;;;;3.95;3.00;;;11.00;99.90;;;;;;5088069;28;20559;-71
2023/02/23 09:33:12;;;;;;;4.25;2.90;;;11.00;99.90;;;;;;5088649;28;20847;-72
2023/02/23 09:35:39;;;;;;;3.45;2.38;;;11.10;99.90;;;;;;5088367;28;20208;-72
2023/02/23 09:38:07;;;;;;;2.95;2.65;;;11.20;99.90;;;;;;5088273;28;20227;-72
2023/02/23 09:40:44;;;;;;;3.10;2.80;;;11.20;99.90;;;;;;5080233;28;20208;-71
2023/02/23 09:43:15;;;;;;;4.25;3.03;;;11.30;99.90;;;;;;5089423;28;20203;-70
2023/02/23 09:45:43;;;;;;;3.55;2.90;;;11.30;99.90;;;;;;5089446;28;20307;-70
2023/02/23 09:48:17;;;;;;;3.47;3.17;;;11.50;99.90;;;;;;5089483;28;20220;-70
2023/02/23 09:50:48;;;;;;;2.47;2.27;;;11.70;99.90;;;;;;5079276;28;20613;-71
2023/02/23 09:53:33;;;;;;;4.93;3.90;;;11.80;99.90;;;;;;5069070;28;20833;-71
2023/02/23 09:56:00;;;;;;;3.63;2.63;;;12.00;99.90;;;;;;5069995;28;20482;-70
2023/02/23 09:58:30;;;;;;;3.08;2.20;;;12.20;99.90;;;;;;5071435;28;20501;-71
2023/02/23 10:01:20;;;;;;;4.20;2.67;;;12.30;99.90;;;;;;5093333;28;20659;-71
2023/02/23 10:03:53;;;;;;;4.47;3.03;;;12.60;99.90;;;;;;5093073;28;20461;-70
2023/02/23 10:06:21;;;;;;;6.07;3.20;;;12.80;99.90;;;;;;5094416;28;20453;-71
2023/02/23 10:08:56;;;;;;;3.03;2.10;;;13.10;99.90;;;;;;5093395;28;20477;-70
2023/02/23 10:11:29;;;;;;;4.73;2.70;;;13.30;99.90;;;;;;5093762;28;20461;-70
2023/02/23 10:14:10;;;;;;;3.03;2.10;;;13.60;99.90;;;;;;5092854;28;20972;-71
2023/02/23 10:16:46;;;;;;;2.93;2.33;;;13.80;99.90;;;;;;5093470;28;20492;-71
2023/02/23 10:19:20;;;;;;;2.83;2.60;;;14.00;99.90;;;;;;5094078;28;20515;-70
2023/02/23 10:21:54;;;;;;;2.97;2.10;;;14.20;99.90;;;;;;5093360;28;20831;-71
2023/02/23 10:24:25;;;;;;;3.30;2.07;;;14.30;99.90;;;;;;5093185;28;20465;-70
2023/02/23 10:26:54;;;;;;;4.87;2.50;;;14.20;99.90;;;;;;5093417;28;20480;-71
2023/02/23 10:29:27;;;;;;;3.40;2.37;;;14.20;99.90;;;;;;5093770;28;20500;-70
2023/02/23 10:31:57;;;;;;;4.20;2.20;;;14.20;99.90;;;;;;5093010;28;20559;-71
2023/02/23 10:34:26;;;;;;;4.10;2.33;;;13.80;99.90;;;;;;5092783;28;20454;-70
2023/02/23 10:36:58;;;;;;;2.27;2.07;;;13.40;99.90;;;;;;5092560;28;20481;-70
2023/02/23 10:39:25;;;;;;;3.03;2.10;;;13.40;99.90;;;;;;5092669;28;20485;-70
2023/02/23 10:41:53;;;;;;;2.33;2.13;;;13.30;99.90;;;;;;5080757;28;20515;-70
2023/02/23 10:44:24;;;;;;;3.87;1.80;;;13.30;99.90;;;;;;5072650;28;20459;-70
2023/02/23 10:46:55;;;;;;;4.53;2.17;;;13.30;99.90;;;;;;5072644;28;20885;-70
2023/02/23 10:49:28;;;;;;;2.03;1.83;;;13.10;99.90;;;;;;5081224;28;20493;-71
2023/02/23 10:52:01;;;;;;;3.23;2.20;;;13.20;99.90;;;;;;5069866;28;20486;-71
2023/02/23 10:54:42;;;;;;;1.93;1.77;;;13.40;99.90;;;;;;5072278;28;20892;-70
2023/02/23 10:57:12;;;;;;;2.10;1.83;;;13.50;99.90;;;;;;5077841;28;21117;-71
2023/02/23 10:59:55;;;;;;;3.30;2.07;;;13.80;99.90;;;;;;5090766;28;20945;-70
2023/02/23 11:02:25;;;;;;;2.40;2.20;;;14.00;99.90;;;;;;5091274;28;20470;-72
2023/02/23 11:04:55;;;;;;;5.93;2.70;;;14.20;99.90;;;;;;5091958;28;20457;-71
2023/02/23 11:07:24;;;;;;;2.50;2.03;;;14.40;99.90;;;;;;5092254;28;20526;-70
2023/02/23 11:09:51;;;;;;;2.50;2.23;;;14.40;99.90;;;;;;5091292;28;20468;-71
2023/02/23 11:12:21;;;;;;;2.10;1.90;;;14.50;99.90;;;;;;5092183;28;20468;-71
2023/02/23 11:14:51;;;;;;;6.33;2.30;;;14.70;99.90;;;;;;5083487;28;20458;-71
2023/02/23 11:17:27;;;;;;;2.23;2.03;;;14.90;99.90;;;;;;5092552;28;20825;-70
2023/02/23 11:20:01;;;;;;;4.20;2.27;;;15.10;99.90;;;;;;5092443;28;20465;-71
2023/02/23 11:22:32;;;;;;;2.93;2.60;;;15.10;99.90;;;;;;5091259;28;20507;-71
2023/02/23 11:25:00;;;;;;;3.57;2.40;;;15.20;99.90;;;;;;5092436;28;20956;-71
2023/02/23 11:27:27;;;;;;;2.07;1.80;;;15.00;99.90;;;;;;5091860;28;20480;-70
2023/02/23 11:29:58;;;;;;;4.47;2.13;;;14.90;99.90;;;;;;5091745;28;20519;-70
2023/02/23 11:32:30;;;;;;;2.60;2.40;;;14.80;99.90;;;;;;5090956;28;20514;-70
2023/02/23 11:35:26;;;;;;;7.30;2.77;;;14.80;99.90;;;;;;5091327;28;20461;-71
2023/02/23 11:37:53;;;;;;;4.13;2.00;;;14.90;99.90;;;;;;5091217;28;21031;-71
2023/02/23 11:40:22;;;;;;;2.67;2.40;;;15.00;99.90;;;;;;5085630;28;20462;-71
2023/02/23 11:42:54;;;;;;;3.67;2.33;;;15.10;99.90;;;;;;5082714;28;20462;-72
2023/02/23 11:45:24;;;;;;;4.30;2.70;;;15.40;99.90;;;;;;5084372;28;20481;-70
2023/02/23 11:47:54;;;;;;;3.10;2.17;;;15.70;99.90;;;;;;5069919;28;20489;-72
2023/02/23 11:50:27;;;;;;;3.40;2.07;;;15.60;99.90;;;;;;5074760;28;20592;-71
2023/02/23 11:53:00;;;;;;;3.10;2.17;;;15.30;99.90;;;;;;5069068;28;20455;-72
2023/02/23 11:55:28;;;;;;;3.40;2.40;;;15.10;99.90;;;;;;5069736;28;21252;-71
2023/02/23 11:58:08;;;;;;;3.77;2.50;;;14.90;99.90;;;;;;5069742;28;20851;-71
2023/02/23 12:00:36;;;;;;;3.40;2.13;;;14.70;99.90;;;;;;5069149;28;20463;-71
2023/02/23 12:03:05;;;;;;;4.33;1.80;;;14.60;99.90;;;;;;5069032;28;20466;-71
2023/02/23 12:05:33;;;;;;;3.60;2.50;;;14.50;99.90;;;;;;5069452;28;21254;-72
2023/02/23 12:08:05;;;;;;;2.27;1.70;;;14.50;99.90;;;;;;5068408;28;20855;-72
2023/02/23 12:10:38;;;;;;;2.00;1.77;;;14.50;99.90;;;;;;5070732;28;20977;-72
2023/02/23 12:13:17;;;;;;;2.80;2.20;;;14.40;99.90;;;;;;5070887;28;20470;-71
2023/02/23 12:15:51;;;;;;;2.60;2.20;;;14.50;99.90;;;;;;5070839;28;20566;-71
2023/02/23 12:18:31;;;;;;;2.77;1.73;;;14.70;99.90;;;;;;5071285;28;20477;-71
2023/02/23 12:21:04;;;;;;;3.47;1.90;;;15.00;99.90;;;;;;5070765;28;20470;-71
2023/02/23 12:23:36;;;;;;;2.40;1.70;;;15.20;99.90;;;;;;5074334;28;20466;-72
2023/02/23 12:26:10;;;;;;;1.93;1.77;;;15.40;99.90;;;;;;5074129;28;20494;-72
2023/02/23 12:28:40;;;;;;;5.30;2.13;;;15.70;99.90;;;;;;5080587;28;20466;-72
2023/02/23 12:31:22;;;;;;;2.77;1.83;;;16.00;99.90;;;;;;5090494;28;20458;-72
2023/02/23 12:33:53;;;;;;;2.20;2.00;;;16.30;99.90;;;;;;5069354;28;20490;-72
2023/02/23 12:36:28;;;;;;;3.00;2.53;;;16.50;99.90;;;;;;5078752;28;20465;-72
2023/02/23 12:39:00;;;;;;;2.37;1.73;;;16.50;99.90;;;;;;5090132;28;20458;-72
2023/02/23 12:41:35;;;;;;;2.20;2.00;;;16.30;99.90;;;;;;5073168;28;20466;-72
2023/02/23 12:44:14;;;;;;;3.20;2.07;;;16.00;99.90;;;;;;5069338;28;20466;-71
2023/02/23 12:46:47;;;;;;;2.27;1.80;;;15.60;99.90;;;;;;5069311;28;20483;-72
2023/02/23 12:49:24;;;;;;;4.20;2.97;;;15.20;99.90;;;;;;5069991;28;20463;-72
2023/02/23 12:51:54;;;;;;;6.53;3.77;;;14.80;99.90;;;;;;5069652;28;20462;-71
2023/02/23 12:54:21;;;;;;;6.33;3.70;;;14.50;99.90;;;;;;5069583;28;20473;-72
2023/02/23 12:56:57;;;;;;;5.20;4.57;;;14.20;99.90;;;;;;5068990;28;20493;-72
2023/02/23 12:59:54;;;;;;;6.30;3.70;;;14.00;99.90;;;;;;5069823;28;20992;-72
2023/02/23 13:02:29;;;;;;;4.53;3.60;;;13.80;99.90;;;;;;5089551;28;20462;-71
2023/02/23 13:05:16;;;;;;;5.13;3.90;;;13.70;99.90;;;;;;5069639;28;20468;-72
2023/02/23 13:07:52;;;;;;;6.50;3.50;;;13.60;99.90;;;;;;5068813;28;20474;-71
2023/02/23 13:10:30;;;;;;;4.63;4.17;;;13.50;99.90;;;;;;5069353;28;20464;-72
2023/02/23 13:13:10;;;;;;;6.80;3.77;;;13.40;99.90;;;;;;5069058;28;20473;-71
2023/02/23 13:15:50;;;;;;;3.33;3.00;;;13.30;99.90;;;;;;5069459;28;20454;-72
2023/02/23 13:18:24;;;;;;;6.87;3.50;;;13.30;99.90;;;;;;5075458;28;20489;-71
2023/02/23 13:20:55;;;;;;;6.53;4.10;;;13.30;99.90;;;;;;5081704;28;20462;-72
2023/02/23 13:23:30;;;;;;;3.93;3.20;;;13.30;99.90;;;;;;5088308;28;20985;-71
2023/02/23 13:26:04;;;;;;;6.20;3.70;;;13.30;99.90;;;;;;5078416;28;20520;-72
2023/02/23 13:28:42;;;;;;;5.67;3.33;;;13.30;99.90;;;;;;5069361;28;20856;-72
2023/02/23 13:31:20;;;;;;;4.37;2.97;;;13.40;99.90;;;;;;5069764;28;20462;-72
2023/02/23 13:33:49;;;;;;;8.40;3.93;;;13.40;99.90;;;;;;5066822;28;20461;-71
2023/02/23 13:36:17;;;;;;;4.17;2.80;;;13.50;99.90;;;;;;5084913;28;20461;-69
2023/02/23 13:38:49;;;;;;;5.83;3.07;;;13.40;99.90;;;;;;5087647;28;20859;-71
2023/02/23 13:41:30;;;;;;;3.87;3.30;;;13.40;99.90;;;;;;5081903;28;20731;-70
2023/02/23 13:44:06;;;;;;;3.60;3.03;;;13.40;99.90;;;;;;5068664;28;20463;-71
2023/02/23 13:46:43;;;;;;;4.17;3.10;;;13.30;99.90;;;;;;5069368;28;20501;-70
2023/02/23 13:49:23;;;;;;;4.57;3.70;;;13.30;99.90;;;;;;5088963;28;20461;-70
2023/02/23 13:51:54;;;;;;;4.50;3.23;;;13.30;99.90;;;;;;5068768;28;20579;-71
2023/02/23 13:54:28;;;;;;;5.67;3.10;;;13.30;99.90;;;;;;5086055;28;20458;-71
2023/02/23 13:56:57;;;;;;;5.73;3.60;;;13.30;99.90;;;;;;5087719;28;20480;-71
2023/02/23 13:59:28;;;;;;;7.43;3.27;;;13.30;99.90;;;;;;5076213;28;20458;-71
2023/02/23 14:01:55;;;;;;;4.30;3.17;;;13.30;99.90;;;;;;5075988;28;20545;-72
2023/02/23 14:04:25;;;;;;;3.43;2.60;;;13.20;99.90;;;;;;5089469;28;20825;-72
2023/02/23 14:06:57;;;;;;;6.10;3.67;;;13.10;99.90;;;;;;5081138;28;20835;-72
2023/02/23 14:09:30;;;;;;;8.13;3.40;;;13.00;99.90;;;;;;5072937;28;21209;-71
2023/02/23 14:12:04;;;;;;;6.63;4.10;;;12.90;99.90;;;;;;5076921;28;20458;-71
2023/02/23 14:14:44;;;;;;;4.33;3.60;;;12.70;99.90;;;;;;5088646;28;20468;-71
2023/02/23 14:17:41;;;;;;;5.00;3.63;;;12.60;99.90;;;;;;5073538;28;20489;-72
2023/02/23 14:20:39;;;;;;;6.40;4.40;;;12.50;99.90;;;;;;5068406;28;20466;-72
2023/02/23 14:23:17;;;;;;;6.80;5.03;;;12.50;99.90;;;;;;5070130;28;20459;-71
2023/02/23 14:25:46;;;;;;;6.30;3.73;;;12.40;99.90;;;;;;5070044;28;20489;-71
2023/02/23 14:28:26;;;;;;;6.77;4.93;;;12.30;99.90;;;;;;5073527;28;20473;-71